TXKF/BDA METAR and TAF weather

Enter ICAO airport designator
Station Type Date Time Source
TXKF METAR 2019/06/26 06:19 UTC NOAA

TXKF 260619Z 18007KT 9999 BKN023 BKN100 25/22 Q1018


Station Type Date Time Source
TXKF Decoded METAR 2019/06/26 06:19 UTC NOAA

Bermuda, Bermuda (TXKF) 32-22N 064-41W
Jun 26, 2019 - 02:19 AM EDT / 2019.06.26 0619 UTC
Wind: from the S (180 degrees) at 8 MPH (7 KT):0
Visibility: greater than 7 mile(s):0
Sky conditions: mostly cloudy
Temperature: 77 F (25 C)
Dew Point: 71 F (22 C)
Relative Humidity: 83%
Pressure (altimeter): 30.06 in. Hg (1018 hPa)
ob: TXKF 260619Z 18007KT 9999 BKN023 BKN100 25/22 Q1018
cycle: 6

Station Type Date Time Source
TXKF TAF 2019/06/26 06:53 UTC NOAA

TAF TXKF 260545Z 2606/2706 18010KT 9999 VCSH FEW013 SCT018 BKN080 PROB30
TEMPO 2615/2621 6000 -SHRA BKN013

Example: see airport list